Time;durP1;ratioP1;P1;durP2;ratioP2;P2;SDS_P1;SDS_P2;PMS_P1;PMS_P2;Temp;Humidity;BMP_temperature;BMP_pressure;BME280_temperature;BME280_humidity;BME280_pressure;Samples;Min_cycle;Max_cycle;Signal;HPM_P1;HPM_P2
2022/09/12 00:01:12;;;;;;;9.03;8.17;;;;;;;13.90;100.00;98248.88;5034449;28;20728;-71
2022/09/12 00:03:39;;;;;;;9.07;8.27;;;;;;;13.79;100.00;98244.38;5034678;28;20196;-71
2022/09/12 00:06:16;;;;;;;8.83;8.03;;;;;;;13.74;100.00;98249.63;5034982;28;20216;-71
2022/09/12 00:08:42;;;;;;;9.47;8.57;;;;;;;13.79;100.00;98250.53;5034963;28;20200;-71
2022/09/12 00:11:11;;;;;;;10.73;8.60;;;;;;;13.81;100.00;98248.44;5034834;28;20234;-71
2022/09/12 00:13:39;;;;;;;9.83;8.93;;;;;;;13.85;100.00;98246.09;5034853;28;20568;-71
2022/09/12 00:16:06;;;;;;;9.13;8.33;;;;;;;13.72;100.00;98249.84;5034812;28;20208;-71
2022/09/12 00:18:33;;;;;;;9.53;8.63;;;;;;;13.67;100.00;98243.56;5034752;28;20216;-71
2022/09/12 00:21:04;;;;;;;9.70;8.90;;;;;;;13.77;100.00;98239.25;5035446;28;20229;-71
2022/09/12 00:23:32;;;;;;;8.87;8.10;;;;;;;13.79;100.00;98241.72;5034631;28;20210;-71
2022/09/12 00:25:59;;;;;;;11.00;9.93;;;;;;;13.74;100.00;98241.59;5034558;28;20252;-71
2022/09/12 00:28:26;;;;;;;9.70;8.80;;;;;;;13.80;100.00;98246.78;5034599;28;20553;-70
2022/09/12 00:30:53;;;;;;;9.17;8.23;;;;;;;13.78;100.00;98245.41;5034168;28;20222;-71
2022/09/12 00:33:19;;;;;;;10.60;8.83;;;;;;;13.75;100.00;98245.91;5034447;28;20209;-71
2022/09/12 00:35:52;;;;;;;9.20;8.40;;;;;;;13.70;100.00;98237.78;5034090;28;20208;-71
2022/09/12 00:38:19;;;;;;;10.37;9.27;;;;;;;13.72;100.00;98241.00;5034396;28;20283;-71
2022/09/12 00:40:46;;;;;;;9.57;8.73;;;;;;;13.70;100.00;98241.22;5033909;28;20236;-71
2022/09/12 00:43:15;;;;;;;10.40;9.13;;;;;;;13.66;100.00;98232.06;5033977;28;20206;-71
2022/09/12 00:45:42;;;;;;;9.67;8.67;;;;;;;13.63;100.00;98231.72;5034183;28;20217;-71
2022/09/12 00:48:21;;;;;;;9.77;8.97;;;;;;;13.63;100.00;98232.53;5034224;28;20267;-71
2022/09/12 00:50:49;;;;;;;9.53;8.67;;;;;;;13.58;100.00;98231.63;5017010;28;20242;-71
2022/09/12 00:53:16;;;;;;;9.10;8.37;;;;;;;13.56;100.00;98229.16;5033809;28;20665;-71
2022/09/12 00:55:47;;;;;;;9.67;8.70;;;;;;;13.49;100.00;98220.47;5034050;28;20314;-71
2022/09/12 00:58:28;;;;;;;9.83;8.80;;;;;;;13.51;100.00;98220.22;5032855;28;20232;-71
2022/09/12 01:00:57;;;;;;;9.27;8.37;;;;;;;13.53;100.00;98220.81;5033974;28;20237;-71
2022/09/12 01:03:24;;;;;;;9.37;8.50;;;;;;;13.53;100.00;98218.97;5033678;28;20210;-71
2022/09/12 01:06:07;;;;;;;9.23;8.27;;;;;;;13.57;100.00;98222.78;5033864;28;20226;-71
2022/09/12 01:08:37;;;;;;;9.73;8.83;;;;;;;13.52;100.00;98219.19;5033328;28;20189;-71
2022/09/12 01:11:05;;;;;;;8.90;8.10;;;;;;;13.50;100.00;98216.75;5033498;28;20229;-71
2022/09/12 01:13:34;;;;;;;10.40;9.50;;;;;;;13.41;100.00;98210.16;5032865;28;20635;-71
2022/09/12 01:16:04;;;;;;;9.50;8.57;;;;;;;13.40;100.00;98207.69;5033466;28;20201;-71
2022/09/12 01:18:55;;;;;;;10.27;9.37;;;;;;;13.44;100.00;98207.03;5032598;28;20217;-70
2022/09/12 01:21:56;;;;;;;10.57;8.80;;;;;;;13.42;100.00;98203.75;5033933;28;20245;-71
2022/09/12 01:24:41;;;;;;;9.67;8.70;;;;;;;13.46;100.00;98199.56;5032473;28;20212;-70
2022/09/12 01:27:17;;;;;;;9.47;8.57;;;;;;;13.37;100.00;98194.81;5033709;28;20272;-71
2022/09/12 01:30:12;;;;;;;9.63;8.73;;;;;;;13.38;100.00;98191.09;5032436;28;20235;-71
2022/09/12 01:33:10;;;;;;;9.83;9.03;;;;;;;13.39;100.00;98192.72;5033601;28;20203;-71
2022/09/12 01:36:06;;;;;;;9.40;8.53;;;;;;;13.38;100.00;98186.56;5033538;28;20295;-71
2022/09/12 01:38:54;;;;;;;9.30;8.40;;;;;;;13.31;100.00;98188.56;5033541;28;20285;-71
2022/09/12 01:41:30;;;;;;;10.57;9.47;;;;;;;13.34;100.00;98185.41;5033470;28;20245;-71
2022/09/12 01:44:09;;;;;;;10.47;9.20;;;;;;;13.32;100.00;98192.03;5033492;28;20215;-71
2022/09/12 01:47:07;;;;;;;10.43;9.43;;;;;;;13.32;100.00;98195.50;5033482;28;20215;-71
2022/09/12 01:49:41;;;;;;;10.23;8.83;;;;;;;13.28;100.00;98185.53;5032917;28;20715;-71
2022/09/12 01:52:19;;;;;;;10.20;9.17;;;;;;;13.31;100.00;98177.06;5033417;28;20203;-71
2022/09/12 01:54:59;;;;;;;11.23;9.17;;;;;;;13.23;100.00;98183.56;5016625;28;20216;-71
2022/09/12 01:58:09;;;;;;;10.03;9.13;;;;;;;13.17;100.00;98176.50;5031909;28;20189;-71
2022/09/12 02:00:46;;;;;;;9.47;8.57;;;;;;;13.13;100.00;98178.00;5032137;28;20233;-71
2022/09/12 02:03:28;;;;;;;10.20;9.13;;;;;;;13.15;100.00;98178.56;5033317;28;20280;-71
2022/09/12 02:06:04;;;;;;;9.63;8.73;;;;;;;13.10;100.00;98174.94;5033213;28;20224;-71
2022/09/12 02:08:42;;;;;;;9.27;8.37;;;;;;;13.06;100.00;98171.94;5033256;28;20201;-70
2022/09/12 02:11:11;;;;;;;9.53;8.73;;;;;;;13.07;100.00;98165.56;5031978;28;20232;-71
2022/09/12 02:13:53;;;;;;;10.30;9.23;;;;;;;13.09;100.00;98168.81;5032063;28;20215;-71
2022/09/12 02:16:34;;;;;;;9.90;9.00;;;;;;;13.08;100.00;98163.72;5033229;28;20188;-70
2022/09/12 02:19:10;;;;;;;9.90;9.10;;;;;;;13.00;100.00;98159.53;5032824;28;20200;-71
2022/09/12 02:21:42;;;;;;;9.40;8.60;;;;;;;12.98;100.00;98161.59;5032884;28;20194;-71
2022/09/12 02:24:12;;;;;;;9.50;8.60;;;;;;;13.00;100.00;98161.38;5034474;28;20190;-71
2022/09/12 02:26:50;;;;;;;10.50;9.60;;;;;;;13.01;100.00;98163.00;5035499;28;20192;-70
2022/09/12 02:29:17;;;;;;;9.70;8.80;;;;;;;12.97;100.00;98167.19;5035702;28;20234;-71
2022/09/12 02:31:54;;;;;;;10.07;9.03;;;;;;;12.97;100.00;98173.34;5036710;28;20572;-71
2022/09/12 02:34:40;;;;;;;9.40;8.50;;;;;;;12.90;100.00;98161.13;5036783;28;20208;-70
2022/09/12 02:37:18;;;;;;;9.20;8.40;;;;;;;12.92;100.00;98153.69;5035463;28;20192;-71
2022/09/12 02:39:44;;;;;;;9.73;8.73;;;;;;;12.85;100.00;98156.47;5036622;28;20251;-71
2022/09/12 02:42:14;;;;;;;9.27;8.47;;;;;;;12.87;100.00;98153.56;5036574;28;20202;-71
2022/09/12 02:44:42;;;;;;;10.40;9.37;;;;;;;12.84;100.00;98151.38;5036111;28;20209;-71
2022/09/12 02:47:14;;;;;;;9.80;8.90;;;;;;;12.84;100.00;98148.72;5037283;28;20214;-71
2022/09/12 02:49:41;;;;;;;10.33;9.43;;;;;;;12.77;100.00;98151.47;5036196;28;20247;-71
2022/09/12 02:52:07;;;;;;;10.10;9.10;;;;;;;12.76;100.00;98149.03;5036154;28;20640;-71
2022/09/12 02:54:34;;;;;;;9.63;8.83;;;;;;;12.72;100.00;98153.22;5036419;28;20238;-71
2022/09/12 02:57:00;;;;;;;9.60;8.67;;;;;;;12.74;100.00;98149.25;5035922;28;20569;-71
2022/09/12 02:59:27;;;;;;;11.07;9.47;;;;;;;12.75;100.00;98145.53;5036240;28;20614;-70
2022/09/12 03:02:00;;;;;;;10.23;9.23;;;;;;;12.79;100.00;98152.06;5036180;28;20205;-70
2022/09/12 03:04:36;;;;;;;11.57;8.87;;;;;;;12.72;100.00;98140.69;5036091;28;20207;-70
2022/09/12 03:07:41;;;;;;;10.13;9.13;;;;;;;12.70;100.00;98144.63;5036126;28;20601;-71
2022/09/12 03:10:32;;;;;;;10.43;9.33;;;;;;;12.71;100.00;98143.59;5035948;28;20223;-71
2022/09/12 03:13:19;;;;;;;10.27;9.30;;;;;;;12.68;100.00;98144.03;5036340;28;20188;-71
2022/09/12 03:16:04;;;;;;;10.97;9.90;;;;;;;12.66;100.00;98148.81;5035827;28;20190;-70
2022/09/12 03:18:37;;;;;;;9.93;9.10;;;;;;;12.69;100.00;98150.97;5035502;28;20218;-70
2022/09/12 03:21:17;;;;;;;10.87;9.87;;;;;;;12.66;100.00;98149.59;5035371;28;20798;-71
2022/09/12 03:23:59;;;;;;;9.90;9.10;;;;;;;12.72;100.00;98148.69;5034430;28;20202;-70
2022/09/12 03:26:58;;;;;;;10.90;9.80;;;;;;;12.63;100.00;98157.25;5018915;28;20208;-71
2022/09/12 03:29:26;;;;;;;9.73;8.90;;;;;;;12.55;100.00;98150.41;5031118;28;20238;-70
2022/09/12 03:31:58;;;;;;;9.90;9.00;;;;;;;12.50;100.00;98152.94;5035592;28;20289;-70
2022/09/12 03:34:27;;;;;;;9.73;8.73;;;;;;;12.46;100.00;98151.75;5034958;28;20219;-71
2022/09/12 03:36:54;;;;;;;10.70;9.80;;;;;;;12.45;100.00;98146.66;5034772;28;20204;-70
2022/09/12 03:39:23;;;;;;;13.00;9.90;;;;;;;12.48;100.00;98151.53;5035346;28;20628;-71
2022/09/12 03:41:50;;;;;;;10.90;9.90;;;;;;;12.51;100.00;98149.22;5035313;28;20220;-71
2022/09/12 03:44:18;;;;;;;10.73;9.50;;;;;;;12.56;100.00;98146.69;5034849;28;20253;-71
2022/09/12 03:46:45;;;;;;;11.93;9.97;;;;;;;12.56;100.00;98152.00;5035160;28;20228;-71
2022/09/12 03:49:11;;;;;;;11.30;10.20;;;;;;;12.56;100.00;98151.19;5034717;28;20218;-70
2022/09/12 03:51:39;;;;;;;10.73;9.63;;;;;;;12.52;100.00;98148.19;5034887;28;20550;-71
2022/09/12 03:54:06;;;;;;;11.83;10.17;;;;;;;12.50;100.00;98149.44;5035068;28;20208;-70
2022/09/12 03:56:33;;;;;;;11.17;9.77;;;;;;;12.48;100.00;98148.88;5035113;28;20215;-70
2022/09/12 03:58:59;;;;;;;10.47;9.57;;;;;;;12.46;100.00;98143.78;5034932;28;20303;-70
2022/09/12 04:01:26;;;;;;;10.60;9.37;;;;;;;12.46;100.00;98138.44;5034860;28;20207;-70
2022/09/12 04:03:52;;;;;;;11.97;9.43;;;;;;;12.44;100.00;98151.16;5034799;28;20241;-71
2022/09/12 04:06:21;;;;;;;12.30;10.53;;;;;;;12.46;100.00;98149.09;5034750;28;20227;-71
2022/09/12 04:08:50;;;;;;;12.10;9.83;;;;;;;12.43;100.00;98149.53;5034334;28;20207;-71
2022/09/12 04:11:18;;;;;;;11.30;10.00;;;;;;;12.41;100.00;98146.31;5034505;28;20230;-71
2022/09/12 04:13:45;;;;;;;11.00;10.00;;;;;;;12.43;100.00;98146.09;5034954;28;20553;-71
2022/09/12 04:16:13;;;;;;;10.70;9.70;;;;;;;12.40;100.00;98143.88;5034083;28;20229;-71
2022/09/12 04:18:40;;;;;;;10.43;9.43;;;;;;;12.38;100.00;98149.41;5034491;28;20789;-71
2022/09/12 04:21:08;;;;;;;10.47;9.50;;;;;;;12.34;100.00;98148.25;5033728;28;20732;-71
2022/09/12 04:23:35;;;;;;;11.33;10.23;;;;;;;12.32;100.00;98141.53;5034288;28;20203;-71
2022/09/12 04:26:05;;;;;;;11.17;10.07;;;;;;;12.31;100.00;98140.72;5034243;28;20234;-71
2022/09/12 04:28:33;;;;;;;10.53;9.53;;;;;;;12.29;100.00;98142.78;5034260;28;20280;-71
2022/09/12 04:31:09;;;;;;;12.50;10.97;;;;;;;12.26;100.00;98140.56;5034007;28;20261;-70
2022/09/12 04:33:36;;;;;;;11.97;10.77;;;;;;;12.28;100.00;98146.50;5034162;28;20241;-71
2022/09/12 04:36:17;;;;;;;12.20;10.87;;;;;;;12.29;100.00;98147.31;5033740;28;20690;-70
2022/09/12 04:38:45;;;;;;;12.00;10.77;;;;;;;12.32;100.00;98142.34;5033767;28;20191;-70
2022/09/12 04:41:17;;;;;;;12.60;11.27;;;;;;;12.33;100.00;98140.47;5033200;28;20226;-70
2022/09/12 04:43:45;;;;;;;12.90;11.07;;;;;;;12.29;100.00;98142.78;5033861;28;20580;-71
2022/09/12 04:46:14;;;;;;;12.83;10.80;;;;;;;12.26;100.00;98137.91;5033256;28;20253;-70
2022/09/12 04:48:40;;;;;;;12.87;11.30;;;;;;;12.27;100.00;98144.06;5033211;28;20238;-70
2022/09/12 04:51:13;;;;;;;12.93;11.67;;;;;;;12.23;100.00;98137.53;5033516;28;20238;-70
2022/09/12 04:53:40;;;;;;;13.70;11.90;;;;;;;12.26;100.00;98137.91;5034260;28;20209;-71
2022/09/12 04:56:09;;;;;;;13.23;11.83;;;;;;;12.25;100.00;98130.16;5033651;28;20677;-71
2022/09/12 04:58:36;;;;;;;11.90;10.60;;;;;;;12.25;100.00;98133.63;5033753;28;20210;-71
2022/09/12 05:01:10;;;;;;;13.37;10.70;;;;;;;12.13;100.00;98131.97;5033043;28;20697;-70
2022/09/12 05:03:38;;;;;;;12.33;11.00;;;;;;;12.12;100.00;98141.78;5033381;28;20221;-70
2022/09/12 05:06:07;;;;;;;12.57;11.30;;;;;;;12.11;100.00;98144.72;5033544;28;20272;-70
2022/09/12 05:08:35;;;;;;;12.93;11.63;;;;;;;12.11;100.00;98139.38;5033188;28;20217;-71
2022/09/12 05:11:10;;;;;;;14.27;11.33;;;;;;;12.11;100.00;98136.72;5030451;28;20218;-70
2022/09/12 05:13:36;;;;;;;12.23;11.03;;;;;;;;;;5026344;28;20202;-71
2022/09/12 05:16:03;;;;;;;12.70;11.33;;;;;;;;;;5032959;28;20206;-70
2022/09/12 05:18:33;;;;;;;12.90;11.57;;;;;;;;;;5021889;28;20328;-71
2022/09/12 05:21:01;;;;;;;12.90;11.60;;;;;;;;;;5015426;28;20224;-70
2022/09/12 05:23:27;;;;;;;12.60;11.17;;;;;;;;;;5032433;28;20206;-70
2022/09/12 05:25:55;;;;;;;13.00;11.73;;;;;;;;;;5031045;28;20221;-71
2022/09/12 05:28:22;;;;;;;12.37;11.20;;;;;;;;;;5032493;28;20204;-71
2022/09/12 05:30:48;;;;;;;13.43;12.03;;;;;;;;;;5031550;28;20747;-70
2022/09/12 05:33:15;;;;;;;14.70;12.70;;;;;;;;;;5031780;28;20217;-70
2022/09/12 05:35:41;;;;;;;14.80;13.07;;;;;;;;;;5032352;28;20203;-70
2022/09/12 05:38:08;;;;;;;14.20;12.80;;;;;;;;;;5032999;28;20213;-70
2022/09/12 05:40:34;;;;;;;14.10;12.60;;;;;;;;;;5030715;28;20720;-71
2022/09/12 05:43:00;;;;;;;13.87;12.47;;;;;;;;;;5031627;28;20207;-71
2022/09/12 05:45:27;;;;;;;13.67;12.33;;;;;;;;;;5032375;28;20236;-70
2022/09/12 05:47:54;;;;;;;13.37;12.07;;;;;;;;;;5031939;28;20208;-70
2022/09/12 05:50:20;;;;;;;14.70;13.20;;;;;;;;;;5032474;28;20238;-70
2022/09/12 05:52:46;;;;;;;14.27;12.73;;;;;;;;;;5032813;28;20236;-70
2022/09/12 05:55:13;;;;;;;13.37;11.97;;;;;;;;;;5032954;28;20218;-70
2022/09/12 05:57:39;;;;;;;15.13;12.37;;;;;;;;;;5032370;28;20257;-70
2022/09/12 06:00:07;;;;;;;13.70;11.93;;;;;;;;;;5036273;28;20228;-70
2022/09/12 06:02:33;;;;;;;13.87;12.47;;;;;;;;;;5036744;28;20207;-70
2022/09/12 06:05:00;;;;;;;13.73;12.20;;;;;;;;;;5036800;28;20205;-70
2022/09/12 06:07:26;;;;;;;13.43;12.03;;;;;;;;;;5034859;28;20759;-70
2022/09/12 06:09:53;;;;;;;14.57;12.43;;;;;;;;;;5036283;28;20690;-70
2022/09/12 06:12:19;;;;;;;13.57;12.17;;;;;;;;;;5035537;28;20213;-70
2022/09/12 06:14:45;;;;;;;14.20;12.90;;;;;;;;;;5036495;28;20241;-70
2022/09/12 06:17:11;;;;;;;15.17;12.67;;;;;;;;;;5035877;28;20208;-70
2022/09/12 06:19:38;;;;;;;13.60;12.20;;;;;;;;;;5036204;28;20238;-70
2022/09/12 06:22:04;;;;;;;16.30;13.20;;;;;;;;;;5035594;28;20211;-70
2022/09/12 06:24:30;;;;;;;15.13;12.33;;;;;;;;;;5035467;28;20314;-71
2022/09/12 06:26:56;;;;;;;13.97;12.17;;;;;;;;;;5036045;28;20227;-70
2022/09/12 06:29:23;;;;;;;15.30;12.97;;;;;;;;;;5036219;28;20230;-71
2022/09/12 06:31:49;;;;;;;13.83;12.27;;;;;;;;;;5035072;28;20201;-70
2022/09/12 06:34:15;;;;;;;13.07;11.57;;;;;;;;;;5035218;28;20209;-70
2022/09/12 06:36:43;;;;;;;14.00;12.60;;;;;;;;;;5035023;28;20304;-71
2022/09/12 06:39:11;;;;;;;12.43;11.27;;;;;;;;;;5035884;28;20207;-71
2022/09/12 06:41:37;;;;;;;13.30;11.97;;;;;;;;;;5035381;28;20206;-71
2022/09/12 06:44:05;;;;;;;13.63;12.23;;;;;;;;;;5034908;28;20209;-71
2022/09/12 06:46:32;;;;;;;14.67;11.60;;;;;;;;;;5034818;28;20221;-70
2022/09/12 06:48:59;;;;;;;13.97;12.20;;;;;;;;;;5035767;28;20206;-71
2022/09/12 06:51:26;;;;;;;15.10;13.50;;;;;;;;;;5034561;28;20217;-71
2022/09/12 06:53:54;;;;;;;14.73;12.27;;;;;;;;;;5035186;28;20258;-71
2022/09/12 06:56:21;;;;;;;14.13;12.73;;;;;;;;;;5034960;28;20205;-70
2022/09/12 06:58:48;;;;;;;13.53;12.27;;;;;;;;;;5035733;28;20232;-70
2022/09/12 07:01:15;;;;;;;15.90;12.93;;;;;;;;;;5035051;28;20278;-70
2022/09/12 07:03:43;;;;;;;14.50;12.73;;;;;;;;;;5034795;28;20205;-70
2022/09/12 07:06:10;;;;;;;14.43;12.30;;;;;;;;;;5035612;28;20305;-70
2022/09/12 07:08:37;;;;;;;13.33;12.13;;;;;;;;;;5035541;28;20284;-70
2022/09/12 07:11:10;;;;;;;14.20;12.80;;;;;;;;;;5034592;28;20228;-70
2022/09/12 07:13:36;;;;;;;12.90;11.70;;;;;;;;;;5032126;28;20205;-70
2022/09/12 07:16:03;;;;;;;13.80;12.30;;;;;;;;;;5036559;28;20202;-70
2022/09/12 07:18:29;;;;;;;14.17;11.50;;;;;;;;;;5034481;28;20202;-70
2022/09/12 07:20:56;;;;;;;12.80;11.47;;;;;;;;;;5034814;28;20783;-71
2022/09/12 07:23:22;;;;;;;12.83;11.63;;;;;;;;;;5034649;28;20213;-71
2022/09/12 07:25:56;;;;;;;13.37;12.17;;;;;;;;;;5035425;28;20206;-71
2022/09/12 07:28:23;;;;;;;12.07;10.70;;;;;;;;;;5034130;28;20668;-71
2022/09/12 07:30:49;;;;;;;13.63;12.23;;;;;;;;;;5035375;28;20217;-71
2022/09/12 07:33:15;;;;;;;12.07;10.93;;;;;;;;;;5035110;28;20210;-71
2022/09/12 07:35:42;;;;;;;13.13;11.43;;;;;;;;;;5034130;28;20201;-71
2022/09/12 07:38:08;;;;;;;12.17;10.97;;;;;;;;;;5035433;28;20206;-70
2022/09/12 07:40:34;;;;;;;12.77;11.47;;;;;;;;;;5034172;28;20226;-71
2022/09/12 07:43:00;;;;;;;12.70;11.27;;;;;;;;;;5033793;28;20218;-70
2022/09/12 07:45:27;;;;;;;13.17;11.57;;;;;;;;;;5034021;28;20206;-71
2022/09/12 07:47:53;;;;;;;14.70;10.77;;;;;;;;;;5034865;28;20670;-71
2022/09/12 07:50:20;;;;;;;16.70;11.87;;;;;;;;;;5034329;28;20278;-71
2022/09/12 07:52:46;;;;;;;12.87;11.17;;;;;;;;;;5034205;28;20214;-71
2022/09/12 07:55:12;;;;;;;12.63;10.93;;;;;;;;;;5034174;28;20202;-71
2022/09/12 07:57:39;;;;;;;11.80;10.70;;;;;;;;;;5034991;28;20572;-71
2022/09/12 08:00:06;;;;;;;11.90;10.50;;;;;;;;;;5033901;28;20589;-71
2022/09/12 08:02:32;;;;;;;11.30;10.10;;;;;;;;;;5034086;28;20217;-71
2022/09/12 08:04:59;;;;;;;11.87;9.67;;;;;;;;;;5033825;28;20202;-71
2022/09/12 08:07:25;;;;;;;13.67;9.67;;;;;;;;;;5034742;28;20229;-71
2022/09/12 08:09:52;;;;;;;10.77;9.87;;;;;;;;;;5034087;28;20260;-71
2022/09/12 08:12:19;;;;;;;9.67;8.27;;;;;;;;;;5033583;28;20206;-71
2022/09/12 08:14:45;;;;;;;10.13;9.20;;;;;;;;;;5033407;28;20208;-71
2022/09/12 08:17:13;;;;;;;9.97;8.80;;;;;;;;;;5034239;28;20576;-71
2022/09/12 08:19:39;;;;;;;9.30;8.40;;;;;;;;;;5033251;28;20716;-70
2022/09/12 08:22:05;;;;;;;9.33;7.97;;;;;;;;;;5033619;28;20210;-71
2022/09/12 08:24:32;;;;;;;11.00;8.60;;;;;;;;;;5033313;28;20664;-71
2022/09/12 08:26:58;;;;;;;9.40;8.27;;;;;;;;;;5034910;28;20313;-70
2022/09/12 08:29:26;;;;;;;9.03;8.13;;;;;;;;;;5033939;28;20316;-71
2022/09/12 08:31:52;;;;;;;11.03;8.40;;;;;;;;;;5031502;28;20216;-71
2022/09/12 08:34:19;;;;;;;9.23;7.63;;;;;;;;;;5033151;28;20202;-71
2022/09/12 08:36:46;;;;;;;8.07;7.37;;;;;;;;;;5032924;28;20292;-71
2022/09/12 08:39:13;;;;;;;7.60;6.70;;;;;;;;;;5033324;28;20213;-71
2022/09/12 08:41:46;;;;;;;7.97;7.13;;;;;;;;;;5034338;28;20206;-70
2022/09/12 08:44:31;;;;;;;6.63;6.03;;;;;;;;;;5032736;28;20209;-71
2022/09/12 08:47:06;;;;;;;6.50;5.83;;;;;;;;;;5032780;28;20561;-71
2022/09/12 08:49:34;;;;;;;6.20;5.60;;;;;;;;;;5033769;28;20229;-71
2022/09/12 08:52:05;;;;;;;6.83;6.23;;;;;;;;;;5033087;28;20202;-71
2022/09/12 08:54:32;;;;;;;6.93;6.13;;;;;;;;;;5034011;28;20200;-71
2022/09/12 08:57:05;;;;;;;7.97;6.17;;;;;;;;;;5033017;28;20217;-71
2022/09/12 08:59:36;;;;;;;6.43;5.83;;;;;;;;;;5033699;28;20325;-71
2022/09/12 09:02:05;;;;;;;6.70;6.10;;;;;;;;;;5031692;28;20232;-71
2022/09/12 09:04:43;;;;;;;5.67;5.07;;;;;;;;;;5034095;28;20292;-72
2022/09/12 09:07:26;;;;;;;5.93;4.40;;;;;;;;;;5031654;28;20213;-71
2022/09/12 09:10:07;;;;;;;5.30;4.20;;;;;;;;;;5032555;28;20320;-71
2022/09/12 09:12:43;;;;;;;4.40;4.00;;;;;;;;;;5032770;28;20201;-71
2022/09/12 09:15:32;;;;;;;4.70;4.10;;;;;;;;;;5032576;28;20205;-71
2022/09/12 09:18:02;;;;;;;4.40;4.00;;;;;;;;;;5021835;28;20205;-71
2022/09/12 09:20:36;;;;;;;4.73;3.83;;;;;;;;;;5031749;28;20268;-71
2022/09/12 09:23:14;;;;;;;4.63;3.63;;;;;;;;;;5032256;28;20275;-71
2022/09/12 09:25:43;;;;;;;4.40;3.57;;;;;;;;;;5032382;28;20581;-70
2022/09/12 09:28:19;;;;;;;4.33;3.10;;;;;;;;;;5030710;28;20229;-71
2022/09/12 09:30:46;;;;;;;3.30;2.90;;;;;;;;;;5013547;28;20226;-71
2022/09/12 09:33:20;;;;;;;3.63;3.13;;;;;;;;;;5027636;28;20202;-71
2022/09/12 09:35:47;;;;;;;2.80;2.60;;;;;;;;;;5034013;28;20281;-71
2022/09/12 09:38:22;;;;;;;3.13;2.93;;;;;;;;;;5031069;28;20205;-71
2022/09/12 09:40:58;;;;;;;3.60;3.10;;;;;;;;;;5033399;28;20283;-71
2022/09/12 09:43:27;;;;;;;5.10;2.90;;;;;;;;;;5027003;28;20224;-71
2022/09/12 09:45:54;;;;;;;3.00;2.53;;;;;;;;;;5032008;28;20235;-71
2022/09/12 09:48:23;;;;;;;2.57;2.30;;;;;;;;;;5032972;28;20584;-71
2022/09/12 09:50:49;;;;;;;2.23;2.00;;;;;;;;;;5032705;28;20241;-71
2022/09/12 09:53:33;;;;;;;2.07;1.97;;;;;;;;;;5033167;28;20209;-71
2022/09/12 09:56:02;;;;;;;3.00;2.00;;;;;;;;;;5032860;28;20206;-71
2022/09/12 09:58:29;;;;;;;2.53;2.17;;;;;;;;;;5032983;28;20206;-71
2022/09/12 10:01:06;;;;;;;2.37;2.10;;;;;;;;;;5033000;28;20228;-71
2022/09/12 10:03:38;;;;;;;2.20;2.00;;;;;;;;;;5032500;28;20206;-71
2022/09/12 10:06:22;;;;;;;2.10;2.00;;;;;;;;;;5032413;28;20206;-70
2022/09/12 10:08:48;;;;;;;2.70;1.97;;;;;;;;;;5032658;28;20210;-71
2022/09/12 10:11:15;;;;;;;2.47;2.23;;;;;;;;;;5032737;28;20222;-71
2022/09/12 10:14:03;;;;;;;2.37;1.73;;;;;;;;;;5032599;28;20213;-71
2022/09/12 10:16:31;;;;;;;2.13;1.93;;;;;;;;;;5032764;28;20197;-71
2022/09/12 10:18:58;;;;;;;2.07;1.73;;;;;;;;;;5032652;28;20216;-71
2022/09/12 10:21:25;;;;;;;2.10;1.90;;;;;;;;;;5032804;28;20206;-71
2022/09/12 10:23:53;;;;;;;1.97;1.70;;;;;;;;;;5032864;28;20221;-71
2022/09/12 10:26:20;;;;;;;2.07;1.97;;;;;;;;;;5032654;28;20212;-71
2022/09/12 10:28:52;;;;;;;2.20;2.00;;;;;;;;;;5032205;28;20582;-71
2022/09/12 10:31:28;;;;;;;3.20;2.20;;;;;;;;;;5032436;28;20233;-71
2022/09/12 10:33:55;;;;;;;2.53;2.00;;;;;;;;;;5032712;28;20209;-71
2022/09/12 10:36:22;;;;;;;2.10;2.00;;;;;;;;;;5032464;28;20218;-71
2022/09/12 10:38:50;;;;;;;1.97;1.80;;;;;;;;;;5032470;28;20202;-71
2022/09/12 10:41:17;;;;;;;2.20;2.03;;;;;;;;;;5032678;28;20229;-71
2022/09/12 10:43:43;;;;;;;2.20;2.10;;;;;;;;;;5032811;28;20213;-71
2022/09/12 10:46:16;;;;;;;2.07;1.70;;;;;;;;;;5035799;28;20212;-71
2022/09/12 10:48:42;;;;;;;1.97;1.80;;;;;;;;;;5035693;28;20256;-71
2022/09/12 10:51:21;;;;;;;2.70;2.20;;;;;;;;;;5035599;28;20233;-71
2022/09/12 10:53:47;;;;;;;3.87;1.63;;;;;;;;;;5035537;28;20206;-71
2022/09/12 10:56:16;;;;;;;1.77;1.67;;;;;;;;;;5035590;28;20240;-71
2022/09/12 10:58:49;;;;;;;1.60;1.50;;;;;;;;;;5035465;28;20213;-71
2022/09/12 11:01:24;;;;;;;2.17;1.77;;;;;;;;;;5035450;28;20233;-71
2022/09/12 11:04:09;;;;;;;1.80;1.70;;;;;;;;;;5034723;28;20656;-71
2022/09/12 11:06:42;;;;;;;1.97;1.70;;;;;;;;;;5034591;28;20216;-71
2022/09/12 11:09:14;;;;;;;2.10;1.90;;;;;;;;;;5035727;28;20202;-71
2022/09/12 11:11:50;;;;;;;2.20;1.63;;;;;;;;;;5035567;28;20190;-71
2022/09/12 11:14:17;;;;;;;1.90;1.80;;;;;;;;;;5035496;28;20196;-71
2022/09/12 11:16:49;;;;;;;1.80;1.70;;;;;;;;;;5035218;28;20202;-71
2022/09/12 11:19:28;;;;;;;1.83;1.73;;;;;;;;;;5035401;28;20215;-71
2022/09/12 11:22:09;;;;;;;1.73;1.63;;;;;;;;;;5035389;28;20266;-71
2022/09/12 11:24:51;;;;;;;1.95;1.77;;;;;;;;;;5035650;28;20208;-71
2022/09/12 11:27:24;;;;;;;1.67;1.57;;;;;;;;;;5035313;28;20237;-71
2022/09/12 11:30:02;;;;;;;1.60;1.50;;;;;;;;;;5034571;28;20226;-71
2022/09/12 11:32:44;;;;;;;1.75;1.63;;;;;;;;;;5035244;28;20205;-71
2022/09/12 11:35:19;;;;;;;1.50;1.40;;;;;;;;;;5034995;28;20288;-71
2022/09/12 11:38:04;;;;;;;1.55;1.45;;;;;;;;;;5035112;28;20213;-71
2022/09/12 11:40:43;;;;;;;1.85;1.25;;;;;;;;;;5035476;28;20240;-71
2022/09/12 11:43:22;;;;;;;1.30;1.20;;;;;;;;;;5034797;28;20206;-71
2022/09/12 11:45:49;;;;;;;1.42;1.25;;;;;;;;;;5034800;28;20586;-71
2022/09/12 11:48:36;;;;;;;1.30;1.20;;;;;;;;;;5034519;28;20230;-71
2022/09/12 11:51:04;;;;;;;2.10;1.13;;;;;;;;;;5028010;28;20237;-71
2022/09/12 11:53:35;;;;;;;2.15;1.55;;;;;;;;;;5033821;28;20212;-71
2022/09/12 11:56:05;;;;;;;1.40;1.30;;;;;;;;;;5034117;28;20196;-71
2022/09/12 11:58:31;;;;;;;2.53;1.20;;;;;;;;;;5034432;28;20201;-71
2022/09/12 12:01:11;;;;;;;1.35;1.25;;;;;;;;;;5034687;28;20275;-71
2022/09/12 12:03:47;;;;;;;1.38;1.20;;;;;;;;;;5034640;28;20198;-71
2022/09/12 12:06:17;;;;;;;1.25;1.25;;;;;;;;;;5034505;28;20200;-71
2022/09/12 12:08:44;;;;;;;1.20;1.20;;;;;;;;;;5034662;28;20272;-71
2022/09/12 12:11:12;;;;;;;1.20;1.20;;;;;;;;;;5034682;28;20222;-71
2022/09/12 12:13:46;;;;;;;1.20;1.10;;;;;;;;;;5034289;28;20687;-71
2022/09/12 12:16:15;;;;;;;1.20;1.17;;;;;;;;;;5035017;28;20200;-71
2022/09/12 12:18:42;;;;;;;2.75;1.33;;;;;;;;;;5034610;28;20213;-71
2022/09/12 12:21:27;;;;;;;1.33;1.30;;;;;;;;;;5034410;28;20233;-71
2022/09/12 12:24:09;;;;;;;1.52;1.27;;;;;;;;;;5034620;28;20571;-71
2022/09/12 12:26:38;;;;;;;1.00;0.98;;;;;;;;;;5034117;28;20206;-71
2022/09/12 12:29:17;;;;;;;0.90;0.90;;;;;;;;;;5033814;28;20230;-71
2022/09/12 12:31:58;;;;;;;1.20;1.08;;;;;;;;;;5034256;28;20210;-71
2022/09/12 12:34:32;;;;;;;1.50;1.00;;;;;;;;;;5033902;28;20210;-71
2022/09/12 12:37:00;;;;;;;1.27;1.00;;;;;;;;;;5034112;28;20570;-71
2022/09/12 12:39:32;;;;;;;1.30;1.20;;;;;;;;;;5034276;28;20228;-71
2022/09/12 12:41:59;;;;;;;1.00;1.00;;;;;;;;;;5033524;28;20206;-71
2022/09/12 12:44:44;;;;;;;1.30;1.20;;;;;;;;;;5033734;28;20298;-71
2022/09/12 12:47:24;;;;;;;1.52;1.08;;;;;;;;;;5033382;28;20693;-71
2022/09/12 12:49:55;;;;;;;1.25;1.23;;;;;;;;;;5033354;28;20806;-71
2022/09/12 12:52:21;;;;;;;1.30;0.90;;;;;;;;;;5033632;28;20216;-71
2022/09/12 12:54:50;;;;;;;1.85;1.15;;;;;;;;;;5033971;28;20206;-71
2022/09/12 12:57:16;;;;;;;1.00;1.00;;;;;;;;;;5033735;28;20206;-71
2022/09/12 12:59:53;;;;;;;0.93;0.93;;;;;;;;;;5033481;28;20225;-71
2022/09/12 13:02:22;;;;;;;1.02;0.85;;;;;;;;;;5033617;28;20212;-71
2022/09/12 13:04:49;;;;;;;1.27;1.02;;;;;;;;;;5033515;28;20216;-71
2022/09/12 13:07:22;;;;;;;0.85;0.80;;;;;;;;;;5033045;28;20206;-71
2022/09/12 13:09:51;;;;;;;0.80;0.80;;;;;;;;;;5032772;28;20268;-71
2022/09/12 13:12:21;;;;;;;1.83;1.00;;;;;;;;;;5033432;28;20210;-71
2022/09/12 13:14:52;;;;;;;0.93;0.90;;;;;;;;;;5033784;28;20202;-71
2022/09/12 13:17:22;;;;;;;0.95;0.90;;;;;;;;;;5033882;28;20552;-71
2022/09/12 13:19:48;;;;;;;1.50;1.00;;;;;;;;;;5033018;28;20226;-71
2022/09/12 13:22:14;;;;;;;1.92;0.98;;;;;;;;;;5033412;28;20665;-71
2022/09/12 13:24:46;;;;;;;1.25;1.20;;;;;;;;;;5033145;28;20212;-71
2022/09/12 13:27:22;;;;;;;1.33;1.23;;;;;;;;;;5033115;28;20304;-71
2022/09/12 13:29:49;;;;;;;1.02;1.00;;;;;;;;;;5033155;28;20226;-71